Looxahoma, Mississippi
Current Conditions -  °F | °C
As of 1:55 PM on Saturday 25 Oct 2014 (Local Time) from KUOX Reporting Station
Clear Clear  
Wind Chill: 75°   Ceiling: Unl
Heat Index: 75°   Visibility: 9mi
Dew Point: 59°   Wind: 6mph
Humidity: 57%   Direction: 260°W
Pressure: 30.08"   Gusts: NA
Location:  34.6336°N, 89.8203°W
Report Text: KUOX 251855Z AUTO 26005KT 9SM CLR 24/15 A3008 RMK AO2 PWINO PNO
Loading
Personal Weather Stations






























Interactive Weather Map
Tropical Storm Tracking
New forecast layout! Learn more

10-Day Weather Forecast

Advertisements
Track Severe Weather on mobile